KODX

Details ICAO KODX
Name EVELYN SHARP FLD
Region United States
Timezone America/Chicago (UTC-6.0)
Plans Departing 3
Arriving 0
Stats Elevation 2,070 ft / 631 m (AMSL)
Location 41.623120° -98.951362°
Runways 2
Magnetic Variation 4.674° E
Sunrise 2017-12-12 13:55:00 UTC / 2017-12-12 07:55:00 Local
Sunset 2017-12-12 23:07:11 UTC / 2017-12-12 17:07:11 Local
Advertisement - Login to hide

Runways

ID Width Length Bearing (true) Bearing (mag) Surface Threshold Offset Overrun Length
13 75 ft / 23 m 4,718 ft / 1,438 m 136.20° 131.53° Concrete 0 ft / 0 m 0 ft / 0 m
17 203 ft / 62 m 2,088 ft / 637 m 179.15° 174.48° Dirt 0 ft / 0 m 0 ft / 0 m
31 75 ft / 23 m 4,718 ft / 1,438 m 316.20° 311.53° Concrete 0 ft / 0 m 0 ft / 0 m
35 203 ft / 62 m 2,088 ft / 637 m 359.15° 354.48° Dirt 0 ft / 0 m 0 ft / 0 m

Map

Weather


0- 5 10 15 20 25 30 35+ Temperature / ° C

Clouds and Precipitation
Forecast for 2017-12-12 18:00 UTC. Updated 16 minutes ago

Ground ~20,000 ft ~40,000 ft Winds

METAR

KODX 121653Z AUTO 27004KT 10SM CLR 04/M02 A3022 RMK AO2 SLP253 T00441022

TAF

Not found

Frequencies

Recorded 119.92 MHz ASOS
Unicom 122.80 MHz CTAF/UNICOM
Warning: Do not use this data for real-world aviation or navigation. No guarantee of current accuracy is given.